Salina, KS

3:54 AM CST on November 27, 2014 (GMT -0600)
Blosser Municipal | Change Station
CLOSE
Current Station
Airport
Location: Concordia,
Elevation: 1483 ft
Nearby Weather Stations

Elev 1483 ft 39.55 °N, 97.65 °W | Updated 59 minutes ago

Clear
Clear
18 °F
Feels Like 18 °F
N
0
Wind Variable Wind from North

Today
High -- | Low -- °F
--% Chance of Precip.
Yesterday
High -- | Low -- °F
Precip. -- in
7:26 AM 5:10 PM
Waxing Crescent, 28% visible
Pressure 30.51 in
Visibility 10.0 miles
Clouds Clear
Dew Point 14 °F
Humidity 84%
Rainfall 0.00 in
Snow Depth Not available.
UV 0 out of 12
Pollen .10 out of 12
Air Quality Not available.
Flu Activity Not available.
METAR KCNK 270855Z AUTO 00000KT 10SM CLR M08/M10 A3045 RMK AO2 SLP329 T10781100 58002

More Conditions Fewer Conditions

Pressure 30.51 in
Visibility 10.0 miles
Clouds Clear
Dew Point 14 °F
Humidity 84%
Rainfall 0.00 in
Snow Depth Not available.
UV 0 out of 12
Pollen .10 out of 12
Air Quality Not available.
Flu Activity Not available.
METAR KCNK 270855Z AUTO 00000KT 10SM CLR M08/M10 A3045 RMK AO2 SLP329 T10781100 58002

More Conditions Fewer Conditions

10-Day Weather Forecast

Almanac

Astronomy

Nov. 27, 2014 Rise Set
Actual Time
Civil Twilight
Nautical Twilight
Astronomical Twilight
Moon
Length of Visible Light
Length of Day
Tomorrow will be .
, % of the Moon is Illuminated

Today's Extremes

State Highs State Lows

Community

WunderPhotos

Upload Photos

1,773,965 photos uploaded!

WunderBlogs® & News

Nearby

Air Quality

  Air Quality AQ Index Pollutant
Not available.

Snow Depth

Station Depth Elevation

Earthquake Activity

City Distance Mag. Time & Date
Minimum magnitude displayed is 2.5.

Coastal Water Temperatures

Place Temperature

Nearby Weather Stations